Time;durP1;ratioP1;P1;durP2;ratioP2;P2;SDS_P1;SDS_P2;PMS_P1;PMS_P2;Temp;Humidity;BMP_temperature;BMP_pressure;BME280_temperature;BME280_humidity;BME280_pressure;Samples;Min_cycle;Max_cycle;Signal;HPM_P1;HPM_P2
2024/01/19 00:02:17;;;;;;;119.80;52.20;;;;;;;9.43;59.34;98152.70;108282;1251;72614;-67
2024/01/19 00:04:45;;;;;;;104.40;47.70;;;;;;;9.45;59.22;98148.54;108360;1251;70068;-67
2024/01/19 00:07:12;;;;;;;108.10;47.40;;;;;;;9.43;59.39;98153.20;108281;1253;72321;-64
2024/01/19 00:09:40;;;;;;;104.10;47.40;;;;;;;9.47;59.38;98154.89;108324;1251;60523;-64
2024/01/19 00:12:07;;;;;;;123.60;54.50;;;;;;;9.57;59.25;98152.86;108351;1253;60333;-68
2024/01/19 00:14:35;;;;;;;114.10;52.40;;;;;;;9.64;59.09;98149.95;108275;1251;73927;-67
2024/01/19 00:17:03;;;;;;;109.80;50.60;;;;;;;9.65;59.05;98146.02;108289;1251;69280;-68
2024/01/19 00:19:32;;;;;;;116.80;53.80;;;;;;;9.67;58.99;98153.09;108262;1251;71068;-67
2024/01/19 00:22:00;;;;;;;91.80;42.60;;;;;;;9.69;58.91;98149.95;108300;1251;60328;-65
2024/01/19 00:24:27;;;;;;;107.60;47.60;;;;;;;9.76;58.76;98146.04;108378;1251;60462;-66
2024/01/19 00:26:55;;;;;;;130.40;55.40;;;;;;;9.73;58.86;98145.01;108367;1251;72619;-67
2024/01/19 00:29:23;;;;;;;107.80;50.70;;;;;;;9.73;58.78;98144.95;108342;1251;69212;-66
2024/01/19 00:31:51;;;;;;;114.90;48.70;;;;;;;9.57;59.18;98149.86;108231;1253;71074;-64
2024/01/19 00:34:18;;;;;;;105.30;48.90;;;;;;;9.54;59.36;98149.53;108161;1253;60979;-65
2024/01/19 00:39:49;;;;;;;105.40;46.20;;;;;;;7.13;68.34;98165.32;104880;1292;601141;-66
2024/01/19 00:42:17;;;;;;;95.10;44.70;;;;;;;8.27;63.69;98165.01;108025;1253;59149;-67
2024/01/19 00:44:44;;;;;;;105.90;48.20;;;;;;;8.31;63.36;98167.38;108048;1253;60403;-66
2024/01/19 00:47:12;;;;;;;103.00;47.20;;;;;;;8.32;63.14;98167.00;108022;1253;72062;-65
2024/01/19 00:49:39;;;;;;;92.80;43.20;;;;;;;8.26;63.43;98165.45;108019;1253;69229;-66
2024/01/19 00:52:07;;;;;;;107.80;49.10;;;;;;;8.23;63.26;98163.99;108006;1254;71202;-67
2024/01/19 00:54:34;;;;;;;101.80;46.50;;;;;;;7.99;64.15;98164.37;108184;1250;136309;-67
2024/01/19 00:57:02;;;;;;;125.10;54.50;;;;;;;8.00;63.96;98155.95;108302;1250;59133;-66
2024/01/19 00:59:30;;;;;;;127.20;50.10;;;;;;;7.89;64.49;98161.96;108304;1250;72430;-67
2024/01/19 01:01:58;;;;;;;101.70;44.50;;;;;;;7.99;64.28;98159.63;108305;1250;69980;-68
2024/01/19 01:04:25;;;;;;;132.80;56.40;;;;;;;8.06;64.18;98163.77;108281;1252;71575;-67
2024/01/19 01:06:53;;;;;;;130.50;55.50;;;;;;;8.07;64.27;98164.96;108354;1250;60216;-64
2024/01/19 01:09:20;;;;;;;125.20;52.80;;;;;;;8.25;63.86;98168.98;108291;1250;59601;-67
2024/01/19 01:11:47;;;;;;;132.00;53.40;;;;;;;8.29;63.53;98173.11;108291;1250;73072;-66
2024/01/19 01:14:15;;;;;;;116.80;50.70;;;;;;;8.26;63.74;98175.04;108371;1251;70430;-68
2024/01/19 01:16:43;;;;;;;142.20;58.70;;;;;;;8.36;63.45;98175.85;108386;1252;71413;-66
2024/01/19 01:19:10;;;;;;;129.00;53.40;;;;;;;8.42;63.21;98178.81;108280;1251;60768;-67
2024/01/19 01:21:38;;;;;;;113.70;48.90;;;;;;;8.49;62.97;98182.08;108317;1250;60040;-67
2024/01/19 01:24:05;;;;;;;131.80;56.00;;;;;;;8.43;62.96;98177.94;108249;1255;73052;-67
2024/01/19 01:26:33;;;;;;;115.70;50.60;;;;;;;8.41;63.13;98179.98;108140;1250;69484;-67
2024/01/19 01:29:00;;;;;;;122.00;52.00;;;;;;;8.38;63.11;98179.09;108294;1251;71391;-66
2024/01/19 01:31:28;;;;;;;128.60;54.50;;;;;;;8.30;63.21;98179.69;108317;1253;60842;-68
2024/01/19 01:33:55;;;;;;;103.30;45.40;;;;;;;8.18;63.66;98183.35;108252;1251;60584;-65
2024/01/19 01:36:23;;;;;;;123.70;53.30;;;;;;;8.16;63.70;98181.54;108274;1251;73036;-67
2024/01/19 01:38:51;;;;;;;101.60;46.20;;;;;;;8.16;63.56;98182.25;108269;1251;70596;-66
2024/01/19 01:41:18;;;;;;;105.30;46.90;;;;;;;8.17;63.31;98187.80;108300;1251;71316;-66
2024/01/19 01:43:47;;;;;;;104.70;46.90;;;;;;;8.22;63.20;98186.67;108213;1252;59686;-67
2024/01/19 01:46:14;;;;;;;84.20;39.90;;;;;;;8.23;63.14;98191.34;108250;1251;59595;-66
2024/01/19 01:48:42;;;;;;;102.60;44.90;;;;;;;8.17;63.27;98192.11;108298;1251;72073;-64
2024/01/19 01:51:09;;;;;;;102.50;44.10;;;;;;;8.14;63.47;98192.52;108287;1251;70209;-66
2024/01/19 01:53:37;;;;;;;92.40;39.30;;;;;;;8.08;63.86;98193.37;108263;1251;71234;-67
2024/01/19 01:56:05;;;;;;;111.90;45.80;;;;;;;8.14;64.00;98194.77;108104;1251;60978;-67
2024/01/19 01:58:32;;;;;;;101.70;42.00;;;;;;;8.12;64.11;98197.67;108245;1251;60447;-68
2024/01/19 02:01:00;;;;;;;93.10;39.40;;;;;;;8.12;64.20;98200.50;108043;1251;71805;-67
2024/01/19 02:03:28;;;;;;;110.30;47.00;;;;;;;8.10;64.46;98204.09;108169;1251;70310;-66
2024/01/19 02:05:55;;;;;;;81.10;38.40;;;;;;;8.15;64.44;98213.40;108184;1251;72681;-67
2024/01/19 02:08:23;;;;;;;99.60;41.40;;;;;;;8.12;64.62;98213.78;108124;1253;59611;-66
2024/01/19 02:10:51;;;;;;;113.80;46.10;;;;;;;8.17;64.39;98215.55;108198;1256;59515;-67
2024/01/19 02:13:19;;;;;;;108.20;46.30;;;;;;;8.20;64.31;98218.06;108154;1251;71587;-65
2024/01/19 02:15:46;;;;;;;116.50;46.40;;;;;;;8.25;64.19;98221.97;108198;1256;70126;-65
2024/01/19 02:18:13;;;;;;;96.00;40.30;;;;;;;8.12;64.56;98230.05;108267;1251;71220;-66
2024/01/19 02:20:41;;;;;;;87.60;37.60;;;;;;;8.25;64.24;98229.67;108268;1253;59575;-66
2024/01/19 02:23:12;;;;;;;93.50;40.40;;;;;;;8.23;64.28;98236.95;108212;1251;60909;-66
2024/01/19 02:25:40;;;;;;;79.00;34.80;;;;;;;8.20;64.33;98238.31;108217;1251;72938;-67
2024/01/19 02:28:07;;;;;;;89.30;38.00;;;;;;;8.20;64.43;98247.20;108145;1251;70032;-67
2024/01/19 02:30:35;;;;;;;99.40;40.70;;;;;;;8.15;64.65;98249.76;108205;1256;72823;-66
2024/01/19 02:33:03;;;;;;;105.30;42.40;;;;;;;8.17;64.69;98252.98;108140;1252;60952;-66
2024/01/19 02:35:31;;;;;;;98.70;42.20;;;;;;;8.08;65.05;98253.33;108136;1252;60092;-66
2024/01/19 02:37:58;;;;;;;89.90;37.40;;;;;;;8.09;65.08;98256.25;108126;1257;71962;-65
2024/01/19 02:40:26;;;;;;;102.60;42.10;;;;;;;8.19;64.71;98259.68;108086;1251;68740;-67
2024/01/19 02:42:54;;;;;;;95.60;39.20;;;;;;;8.21;64.76;98264.83;108152;1252;72981;-64
2024/01/19 02:45:21;;;;;;;89.90;38.10;;;;;;;8.33;64.37;98266.45;108118;1253;59626;-66
2024/01/19 02:47:49;;;;;;;98.70;40.00;;;;;;;8.35;64.19;98269.08;108139;1257;60043;-66
2024/01/19 02:50:16;;;;;;;92.30;38.00;;;;;;;8.29;64.30;98270.67;108128;1253;72140;-67
2024/01/19 02:52:44;;;;;;;87.90;37.80;;;;;;;8.22;64.61;98273.84;108150;1251;68744;-68
2024/01/19 02:55:11;;;;;;;103.90;40.70;;;;;;;8.32;64.34;98281.85;108157;1252;72718;-67
2024/01/19 02:57:39;;;;;;;80.50;35.40;;;;;;;8.39;64.15;98286.86;108126;1253;59627;-67
2024/01/19 03:00:08;;;;;;;91.20;37.90;;;;;;;8.37;64.13;98287.89;108138;1252;60203;-66
2024/01/19 03:02:35;;;;;;;85.60;35.60;;;;;;;8.34;64.00;98295.23;108168;1252;72970;-67
2024/01/19 03:05:03;;;;;;;84.20;35.00;;;;;;;8.34;64.03;98296.26;108160;1253;69155;-66
2024/01/19 03:07:31;;;;;;;83.20;35.90;;;;;;;8.28;64.14;98297.30;108080;1253;71118;-67
2024/01/19 03:09:58;;;;;;;88.40;34.30;;;;;;;8.25;64.18;98303.27;108060;1253;59914;-67
2024/01/19 03:12:26;;;;;;;78.00;32.50;;;;;;;8.20;64.28;98305.08;108128;1251;59989;-65
2024/01/19 03:14:53;;;;;;;68.20;30.40;;;;;;;8.16;64.38;98306.69;108127;1253;71773;-65
2024/01/19 03:17:21;;;;;;;65.50;29.30;;;;;;;8.16;64.48;98313.17;108148;1253;70314;-66
2024/01/19 03:19:50;;;;;;;58.30;25.40;;;;;;;8.33;63.97;98318.85;108185;1253;71660;-68
2024/01/19 03:22:17;;;;;;;60.90;27.80;;;;;;;8.30;64.02;98322.89;108163;1253;59840;-66
2024/01/19 03:24:48;;;;;;;57.50;25.90;;;;;;;8.26;64.13;98328.88;108094;1251;59536;-67
2024/01/19 03:27:15;;;;;;;52.40;23.90;;;;;;;8.16;64.47;98330.45;108090;1252;73260;-64
2024/01/19 03:29:44;;;;;;;57.40;26.30;;;;;;;8.16;64.51;98339.40;108068;1251;69720;-67
2024/01/19 03:32:11;;;;;;;52.00;24.90;;;;;;;8.15;64.56;98336.80;108114;1251;71911;-67
2024/01/19 03:34:40;;;;;;;60.60;25.80;;;;;;;8.20;64.49;98340.58;108151;1252;61692;-66
2024/01/19 03:37:07;;;;;;;59.60;26.00;;;;;;;8.14;64.71;98342.67;108165;1251;59246;-65
2024/01/19 03:39:35;;;;;;;63.60;27.40;;;;;;;8.17;64.61;98347.22;108153;1251;73008;-65
2024/01/19 03:42:03;;;;;;;55.30;24.50;;;;;;;8.09;64.83;98347.48;108280;1251;68475;-67
2024/01/19 03:44:31;;;;;;;47.90;24.40;;;;;;;8.11;64.84;98353.86;108226;1251;72715;-66
2024/01/19 03:47:01;;;;;;;48.90;23.40;;;;;;;8.13;64.83;98358.27;108161;1253;59496;-67
2024/01/19 03:49:29;;;;;;;49.30;22.90;;;;;;;8.11;64.78;98362.42;108186;1251;59420;-68
2024/01/19 03:52:07;;;;;;;44.30;22.10;;;;;;;8.07;64.95;98366.80;108196;1251;73090;-67
2024/01/19 03:54:35;;;;;;;49.60;22.90;;;;;;;8.11;64.89;98370.79;108290;1251;69038;-67
2024/01/19 03:57:08;;;;;;;48.90;24.30;;;;;;;8.17;64.65;98378.31;108119;1253;71372;-66
2024/01/19 03:59:36;;;;;;;43.50;21.00;;;;;;;8.22;64.55;98380.54;108234;1251;60912;-67
2024/01/19 04:02:05;;;;;;;41.70;20.90;;;;;;;8.23;64.50;98388.34;108204;1251;59521;-67
2024/01/19 04:04:33;;;;;;;38.70;18.90;;;;;;;8.21;64.56;98392.81;108237;1251;74291;-66
2024/01/19 04:07:01;;;;;;;34.90;18.20;;;;;;;8.05;64.83;98396.33;108252;1251;68531;-67
2024/01/19 04:09:29;;;;;;;32.20;17.40;;;;;;;8.01;65.06;98397.59;108263;1251;71728;-68
2024/01/19 04:11:56;;;;;;;33.20;16.90;;;;;;;8.01;65.04;98402.13;108208;1251;60943;-66
2024/01/19 04:14:24;;;;;;;30.90;16.80;;;;;;;8.01;65.09;98405.06;108230;1251;59583;-67
2024/01/19 04:16:52;;;;;;;32.10;16.80;;;;;;;7.91;65.37;98410.52;108267;1251;70870;-65
2024/01/19 04:19:19;;;;;;;30.50;15.90;;;;;;;7.97;65.10;98414.02;108198;1251;69050;-66
2024/01/19 04:21:47;;;;;;;27.00;14.80;;;;;;;7.97;65.08;98415.07;108174;1251;72472;-65
2024/01/19 04:24:14;;;;;;;24.10;13.50;;;;;;;7.94;65.18;98421.54;108196;1252;60815;-66
2024/01/19 04:26:42;;;;;;;24.40;13.80;;;;;;;7.95;65.19;98425.16;108197;1251;60090;-67
2024/01/19 04:29:10;;;;;;;26.20;14.20;;;;;;;7.89;65.27;98428.63;108242;1251;73114;-68
2024/01/19 04:31:37;;;;;;;24.90;13.40;;;;;;;7.83;65.47;98433.32;108288;1251;69112;-66
2024/01/19 04:34:05;;;;;;;25.50;13.40;;;;;;;7.81;65.40;98434.08;108208;1251;72971;-65
2024/01/19 04:36:32;;;;;;;22.40;12.70;;;;;;;7.80;65.31;98441.33;108159;1253;59881;-65
2024/01/19 04:39:00;;;;;;;21.30;12.00;;;;;;;7.90;65.07;98451.65;108253;1251;59647;-65
2024/01/19 04:41:28;;;;;;;24.80;13.00;;;;;;;7.82;65.18;98461.48;108269;1251;73604;-65
2024/01/19 04:43:55;;;;;;;23.70;13.10;;;;;;;7.85;64.86;98468.30;108213;1253;68561;-66
2024/01/19 04:46:23;;;;;;;21.70;12.80;;;;;;;7.90;64.67;98478.36;108226;1251;72402;-67
2024/01/19 04:48:51;;;;;;;22.10;13.30;;;;;;;7.86;64.78;98486.25;108164;1253;60303;-65
2024/01/19 04:51:18;;;;;;;21.30;12.30;;;;;;;7.79;64.86;98498.48;108191;1256;59539;-66
2024/01/19 04:53:46;;;;;;;19.80;12.10;;;;;;;7.75;64.99;98502.73;108160;1251;73007;-66
2024/01/19 04:56:14;;;;;;;19.10;11.20;;;;;;;7.90;64.64;98510.54;108172;1251;70689;-66
2024/01/19 04:58:41;;;;;;;19.80;11.10;;;;;;;7.94;64.52;98511.17;108058;1251;72627;-65
2024/01/19 05:01:09;;;;;;;19.40;11.50;;;;;;;7.88;64.64;98505.73;108143;1251;60789;-66
2024/01/19 05:03:37;;;;;;;18.80;10.50;;;;;;;7.87;64.50;98510.15;108171;1251;60345;-65
2024/01/19 05:06:04;;;;;;;22.00;12.60;;;;;;;7.91;64.24;98514.31;108153;1252;73847;-67
2024/01/19 05:08:32;;;;;;;18.70;10.70;;;;;;;7.89;64.21;98523.65;108188;1251;69158;-68
2024/01/19 05:10:59;;;;;;;15.80;9.30;;;;;;;7.95;64.02;98523.03;108193;1253;72757;-67
2024/01/19 05:13:27;;;;;;;18.30;10.80;;;;;;;7.88;63.99;98536.98;108186;1251;60434;-68
2024/01/19 05:15:54;;;;;;;16.80;9.50;;;;;;;7.86;64.13;98540.62;108310;1251;60316;-67
2024/01/19 05:18:22;;;;;;;15.30;9.70;;;;;;;7.79;64.11;98546.54;108228;1251;74732;-67
2024/01/19 05:20:50;;;;;;;15.20;9.60;;;;;;;7.77;64.07;98559.04;108233;1251;69006;-67
2024/01/19 05:23:17;;;;;;;15.60;9.60;;;;;;;7.77;63.95;98566.89;108137;1251;73605;-67
2024/01/19 05:25:45;;;;;;;12.70;8.50;;;;;;;7.75;64.06;98563.52;108178;1251;60352;-67
2024/01/19 05:28:13;;;;;;;12.20;8.30;;;;;;;7.78;63.76;98562.52;108212;1251;60274;-66
2024/01/19 05:30:41;;;;;;;11.90;8.10;;;;;;;7.75;63.73;98578.90;108252;1251;73894;-66
2024/01/19 05:33:09;;;;;;;13.60;8.70;;;;;;;7.72;63.85;98587.09;108157;1253;69937;-68
2024/01/19 05:35:36;;;;;;;11.60;7.80;;;;;;;7.73;63.45;98596.43;108115;1253;71473;-67
2024/01/19 05:38:04;;;;;;;11.80;7.90;;;;;;;7.61;63.56;98605.10;108126;1253;60294;-67
2024/01/19 05:40:32;;;;;;;12.50;8.20;;;;;;;7.59;63.74;98614.98;108174;1253;60267;-67
2024/01/19 05:43:01;;;;;;;12.60;8.40;;;;;;;7.61;63.40;98621.84;108122;1253;73055;-67
2024/01/19 05:45:28;;;;;;;12.70;8.70;;;;;;;7.64;63.50;98627.48;108223;1253;68897;-68
2024/01/19 05:47:56;;;;;;;12.90;8.60;;;;;;;7.63;63.26;98635.89;108127;1253;70744;-67
2024/01/19 05:50:23;;;;;;;14.00;8.80;;;;;;;7.63;63.26;98644.80;108101;1251;60300;-66
2024/01/19 05:52:51;;;;;;;15.30;9.50;;;;;;;7.53;63.44;98653.53;108175;1253;60320;-65
2024/01/19 05:55:19;;;;;;;12.40;8.00;;;;;;;7.42;63.59;98666.61;108044;1253;73850;-65
2024/01/19 05:57:46;;;;;;;11.50;8.10;;;;;;;7.46;63.43;98673.77;108125;1252;70136;-66
2024/01/19 06:00:14;;;;;;;14.00;8.10;;;;;;;7.52;63.30;98680.28;108073;1253;72659;-66
2024/01/19 06:02:42;;;;;;;11.40;7.50;;;;;;;7.49;63.05;98679.91;108174;1253;60416;-65
2024/01/19 06:05:10;;;;;;;13.90;8.50;;;;;;;7.51;62.97;98686.05;108204;1251;60287;-67
2024/01/19 06:07:37;;;;;;;10.70;7.00;;;;;;;7.38;63.15;98691.21;108174;1253;76050;-67
2024/01/19 06:10:06;;;;;;;13.60;8.10;;;;;;;7.39;63.23;98695.75;108146;1253;69906;-66
2024/01/19 06:12:33;;;;;;;11.90;7.70;;;;;;;7.58;62.44;98706.55;108206;1253;72464;-66
2024/01/19 06:15:01;;;;;;;12.20;7.80;;;;;;;7.44;62.80;98712.27;108174;1252;60802;-67
2024/01/19 06:17:30;;;;;;;13.10;8.00;;;;;;;7.45;62.78;98718.33;108051;1253;62027;-67
2024/01/19 06:19:57;;;;;;;11.70;7.80;;;;;;;7.32;62.80;98719.48;108171;1252;72967;-67
2024/01/19 06:22:25;;;;;;;14.70;8.40;;;;;;;7.32;62.90;98722.25;108135;1252;69961;-68
2024/01/19 06:24:52;;;;;;;13.50;8.50;;;;;;;7.56;62.31;98721.99;108179;1253;71431;-68
2024/01/19 06:27:21;;;;;;;15.20;8.80;;;;;;;7.58;62.30;98727.16;108124;1253;60322;-66
2024/01/19 06:29:48;;;;;;;12.30;8.00;;;;;;;7.51;62.60;98727.30;108111;1252;60458;-67
2024/01/19 06:32:16;;;;;;;15.90;9.40;;;;;;;7.43;62.78;98732.77;108129;1252;73936;-67
2024/01/19 06:34:44;;;;;;;17.90;10.30;;;;;;;7.47;62.74;98737.82;108208;1254;70052;-63
2024/01/19 06:37:12;;;;;;;16.10;9.90;;;;;;;7.55;62.56;98741.29;108173;1253;71124;-67
2024/01/19 06:39:39;;;;;;;17.10;9.40;;;;;;;7.56;62.40;98740.67;108254;1251;60454;-69
2024/01/19 06:42:07;;;;;;;19.10;10.40;;;;;;;7.57;62.38;98745.53;108259;1254;60334;-67
2024/01/19 06:44:35;;;;;;;24.20;11.10;;;;;;;7.60;62.24;98754.48;108298;1252;73917;-65
2024/01/19 06:47:03;;;;;;;22.20;11.70;;;;;;;7.49;62.61;98757.42;108158;1251;72193;-67
2024/01/19 06:49:30;;;;;;;20.70;11.60;;;;;;;7.51;62.66;98761.53;108291;1256;72363;-67
2024/01/19 06:51:59;;;;;;;23.20;12.30;;;;;;;7.52;62.77;98761.15;108135;1251;60864;-67
2024/01/19 06:54:27;;;;;;;23.40;11.70;;;;;;;7.66;62.27;98765.89;108255;1253;60567;-68
2024/01/19 06:56:55;;;;;;;25.00;12.60;;;;;;;7.70;61.98;98773.75;108218;1251;73883;-67
2024/01/19 06:59:23;;;;;;;25.80;13.30;;;;;;;7.64;62.09;98781.72;108168;1251;68703;-67
2024/01/19 07:01:51;;;;;;;20.00;11.40;;;;;;;7.52;62.41;98787.13;108172;1256;71763;-67
2024/01/19 07:04:19;;;;;;;26.50;13.40;;;;;;;7.48;62.58;98784.70;108308;1251;60861;-66
2024/01/19 07:06:47;;;;;;;26.10;13.10;;;;;;;7.43;62.62;98786.71;108354;1256;60319;-66
2024/01/19 07:09:17;;;;;;;26.70;13.00;;;;;;;7.49;62.64;98793.42;108360;1252;72616;-67
2024/01/19 07:11:44;;;;;;;25.60;13.30;;;;;;;7.57;62.21;98796.17;108184;1256;70006;-67
2024/01/19 07:14:12;;;;;;;21.70;11.60;;;;;;;7.57;62.35;98799.34;108358;1252;72969;-67
2024/01/19 07:16:40;;;;;;;29.40;14.40;;;;;;;7.55;62.39;98804.14;108200;1253;60335;-67
2024/01/19 07:19:08;;;;;;;30.60;14.20;;;;;;;7.52;62.52;98810.73;108227;1251;60345;-66
2024/01/19 07:21:39;;;;;;;33.10;15.50;;;;;;;7.49;62.49;98815.75;108237;1251;73869;-68
2024/01/19 07:24:07;;;;;;;34.00;15.00;;;;;;;7.47;62.39;98826.34;108293;1251;69057;-67
2024/01/19 07:26:35;;;;;;;34.20;16.00;;;;;;;7.51;62.27;98831.75;108259;1253;74139;-67
2024/01/19 07:29:06;;;;;;;31.20;14.50;;;;;;;7.55;62.22;98839.75;108232;1253;60431;-67
2024/01/19 07:31:34;;;;;;;42.40;17.20;;;;;;;7.52;62.11;98848.13;108229;1253;60201;-68
2024/01/19 07:34:03;;;;;;;40.90;17.90;;;;;;;7.48;62.09;98842.71;108137;1253;73867;-68
2024/01/19 07:36:31;;;;;;;47.80;20.30;;;;;;;7.56;61.71;98848.83;108168;1253;68721;-67
2024/01/19 07:39:00;;;;;;;47.40;19.60;;;;;;;7.55;61.78;98860.21;108098;1257;71240;-66
2024/01/19 07:41:27;;;;;;;53.10;20.60;;;;;;;7.54;61.83;98862.35;108198;1252;63005;-68
2024/01/19 07:43:55;;;;;;;39.80;17.40;;;;;;;7.56;61.57;98870.98;108110;1253;60633;-66
2024/01/19 07:46:23;;;;;;;44.40;19.30;;;;;;;7.56;61.56;98875.02;108229;1253;72843;-66
2024/01/19 07:48:50;;;;;;;44.10;18.50;;;;;;;7.58;61.45;98883.98;108168;1253;72628;-67
2024/01/19 07:51:19;;;;;;;39.70;18.40;;;;;;;7.61;61.09;98890.84;107960;1253;72505;-67
2024/01/19 07:53:47;;;;;;;37.20;17.80;;;;;;;7.58;60.99;98903.58;108124;1253;60424;-68
2024/01/19 07:56:15;;;;;;;41.70;20.10;;;;;;;7.56;61.33;98900.33;108136;1252;60431;-69
2024/01/19 07:58:43;;;;;;;42.70;19.70;;;;;;;7.53;61.16;98900.13;108140;1253;73401;-68
2024/01/19 08:01:11;;;;;;;40.80;18.00;;;;;;;7.55;60.68;98911.58;108019;1252;70601;-69
2024/01/19 08:03:39;;;;;;;42.10;19.10;;;;;;;7.50;60.58;98915.60;108129;1253;70736;-68
2024/01/19 08:06:06;;;;;;;40.20;18.00;;;;;;;7.49;60.35;98920.20;108119;1253;62624;-68
2024/01/19 08:08:34;;;;;;;44.00;20.30;;;;;;;7.49;60.36;98914.97;108195;1253;61954;-67
2024/01/19 08:11:02;;;;;;;48.00;20.70;;;;;;;7.34;60.42;98921.19;108154;1252;74947;-68
2024/01/19 08:13:30;;;;;;;41.70;19.70;;;;;;;7.29;60.45;98923.84;108148;1258;69249;-67
2024/01/19 08:15:57;;;;;;;47.70;20.80;;;;;;;7.33;60.20;98931.00;108143;1253;72099;-69
2024/01/19 08:18:25;;;;;;;42.10;20.30;;;;;;;7.32;59.99;98933.84;108083;1257;62830;-66
2024/01/19 08:20:52;;;;;;;48.40;20.80;;;;;;;7.29;59.89;98937.80;108138;1253;60469;-68
2024/01/19 08:23:20;;;;;;;44.10;19.20;;;;;;;7.31;59.78;98942.13;108115;1251;76228;-67
2024/01/19 08:25:48;;;;;;;42.30;19.70;;;;;;;7.31;59.66;98938.61;108151;1257;69772;-67
2024/01/19 08:28:15;;;;;;;38.80;19.40;;;;;;;7.34;59.60;98939.52;108228;1253;71277;-68
2024/01/19 08:30:43;;;;;;;38.90;18.80;;;;;;;7.32;59.64;98939.25;108160;1253;62984;-66
2024/01/19 08:33:12;;;;;;;40.20;19.50;;;;;;;7.39;59.52;98938.77;108172;1256;60357;-69
2024/01/19 08:35:40;;;;;;;43.30;22.00;;;;;;;7.55;59.30;98942.13;108202;1253;73973;-67
2024/01/19 08:38:08;;;;;;;38.40;19.90;;;;;;;7.69;59.10;98946.38;108136;1251;70591;-68
2024/01/19 08:40:35;;;;;;;43.80;20.40;;;;;;;7.80;59.17;98954.29;108198;1256;70806;-68
2024/01/19 08:43:03;;;;;;;35.00;18.60;;;;;;;8.09;58.40;98958.58;108265;1252;60528;-67
2024/01/19 08:45:31;;;;;;;40.50;20.40;;;;;;;8.16;57.49;98965.25;108223;1252;60999;-68
2024/01/19 08:47:59;;;;;;;37.80;18.70;;;;;;;8.13;57.46;98962.57;108247;1251;74487;-67
2024/01/19 08:50:27;;;;;;;36.10;19.00;;;;;;;8.25;57.11;98958.41;108261;1253;72635;-67
2024/01/19 08:52:55;;;;;;;35.20;16.80;;;;;;;8.19;57.10;98963.20;108246;1254;74718;-68
2024/01/19 08:55:23;;;;;;;36.80;19.60;;;;;;;8.28;56.67;98967.50;108217;1253;60952;-67
2024/01/19 08:57:50;;;;;;;31.80;16.80;;;;;;;8.44;56.56;98972.56;108187;1256;62323;-68
2024/01/19 09:00:19;;;;;;;37.30;18.10;;;;;;;8.58;56.59;98974.34;108170;1253;73162;-68
2024/01/19 09:02:49;;;;;;;36.10;17.70;;;;;;;8.91;55.74;98977.00;108190;1252;69377;-68
2024/01/19 09:05:29;;;;;;;33.60;18.20;;;;;;;9.35;55.32;98986.55;108197;1252;74984;-66
2024/01/19 09:07:58;;;;;;;36.90;18.50;;;;;;;10.01;54.61;98992.11;108209;1251;61745;-68
2024/01/19 09:10:26;;;;;;;27.00;15.70;;;;;;;10.77;53.56;98995.17;108237;1252;61028;-69
2024/01/19 09:12:54;;;;;;;29.70;14.90;;;;;;;11.12;50.96;99003.59;108279;1253;72546;-67
2024/01/19 09:15:21;;;;;;;26.10;15.00;;;;;;;11.16;49.91;99016.70;108246;1251;69202;-69
2024/01/19 09:17:49;;;;;;;27.10;14.70;;;;;;;11.24;48.76;99020.67;108202;1253;72689;-69
2024/01/19 09:20:17;;;;;;;29.90;15.30;;;;;;;11.24;48.52;99021.91;108298;1251;61061;-68
2024/01/19 09:22:44;;;;;;;27.70;15.60;;;;;;;11.21;48.05;99027.88;108220;1253;62217;-69
2024/01/19 09:25:13;;;;;;;28.60;15.40;;;;;;;11.24;47.29;99029.46;108246;1253;75055;-68
2024/01/19 09:27:40;;;;;;;26.90;15.60;;;;;;;10.94;47.38;99029.91;108146;1253;69033;-68
2024/01/19 09:30:09;;;;;;;24.40;14.30;;;;;;;10.89;47.92;99037.17;108217;1251;73739;-69
2024/01/19 09:32:40;;;;;;;28.10;15.30;;;;;;;10.74;47.62;99042.44;108229;1253;60447;-70
2024/01/19 09:35:08;;;;;;;29.10;16.00;;;;;;;10.57;47.78;99042.48;108220;1251;61326;-68
2024/01/19 09:37:36;;;;;;;30.60;15.40;;;;;;;10.43;47.80;99051.14;108258;1251;73854;-69
2024/01/19 09:40:04;;;;;;;32.50;15.90;;;;;;;10.34;48.13;99047.36;108247;1251;70057;-69
2024/01/19 09:42:33;;;;;;;32.40;16.20;;;;;;;10.24;48.05;99051.73;108267;1251;73674;-68
2024/01/19 09:45:03;;;;;;;29.90;15.50;;;;;;;10.08;48.44;99051.02;108292;1253;61301;-70
2024/01/19 09:47:42;;;;;;;;;;;;;;;9.87;48.99;99057.17;108240;1251;60433;-69
2024/01/19 09:50:10;;;;;;;24.80;14.40;;;;;;;9.94;48.93;99060.17;108248;1252;73274;-69
2024/01/19 09:53:01;;;;;;;31.00;16.30;;;;;;;9.85;49.33;99069.89;108229;1256;69784;-68
2024/01/19 09:55:29;;;;;;;26.20;15.50;;;;;;;9.85;49.34;99075.84;108221;1256;72604;-68
2024/01/19 09:57:57;;;;;;;29.70;15.50;;;;;;;9.77;49.14;99071.69;108248;1254;60677;-69
2024/01/19 10:00:28;;;;;;;;;;;;;;;9.77;49.14;99079.59;108173;1253;60993;-68
2024/01/19 10:02:56;;;;;;;30.60;16.00;;;;;;;9.55;49.06;99081.91;108172;1251;73933;-68
2024/01/19 10:05:28;;;;;;;32.90;16.30;;;;;;;9.49;49.52;99084.30;108262;1253;69443;-69
2024/01/19 10:07:57;;;;;;;32.80;17.30;;;;;;;9.48;49.65;99081.90;108198;1252;72779;-70
2024/01/19 10:10:25;;;;;;;31.60;16.40;;;;;;;9.45;49.82;99073.14;108085;1254;61892;-68
2024/01/19 10:12:53;;;;;;;29.50;15.20;;;;;;;9.41;50.02;99077.85;108244;1253;60333;-68
2024/01/19 10:15:21;;;;;;;27.30;15.40;;;;;;;9.38;50.20;99084.12;108182;1251;76127;-69
2024/01/19 10:17:49;;;;;;;27.20;15.60;;;;;;;9.41;50.04;99093.66;108142;1253;72607;-70
2024/01/19 10:20:17;;;;;;;29.80;15.60;;;;;;;9.47;49.79;99095.29;108263;1253;73820;-66
2024/01/19 10:22:45;;;;;;;33.20;16.40;;;;;;;9.43;49.48;99094.96;108210;1254;61743;-71
2024/01/19 10:25:13;;;;;;;32.10;15.40;;;;;;;9.42;49.50;99097.44;108171;1253;60303;-66
2024/01/19 10:27:46;;;;;;;29.20;15.20;;;;;;;9.38;49.57;99105.70;108180;1251;75421;-69
2024/01/19 10:30:17;;;;;;;25.40;13.40;;;;;;;9.35;49.43;99100.58;108238;1251;72702;-66
2024/01/19 10:32:45;;;;;;;28.60;14.10;;;;;;;9.50;49.01;99096.73;108200;1253;73631;-67
2024/01/19 10:35:15;;;;;;;27.30;14.70;;;;;;;9.56;49.05;99099.41;108195;1256;63097;-70
2024/01/19 10:37:44;;;;;;;23.30;13.20;;;;;;;9.62;48.76;99112.06;108182;1256;60229;-68
2024/01/19 10:40:24;;;;;;;25.70;13.30;;;;;;;9.72;47.76;99111.36;108191;1251;73923;-69
2024/01/19 10:42:59;;;;;;;27.50;13.30;;;;;;;9.87;47.64;99119.95;108202;1251;69519;-67
2024/01/19 10:45:28;;;;;;;26.60;13.00;;;;;;;10.08;47.61;99118.31;108162;1251;74885;-68
2024/01/19 10:48:01;;;;;;;25.10;12.60;;;;;;;10.36;47.48;99116.58;108140;1253;60488;-69
2024/01/19 10:50:30;;;;;;;24.10;11.80;;;;;;;10.59;46.27;99122.04;108167;1252;60371;-69
2024/01/19 10:52:59;;;;;;;20.20;11.40;;;;;;;10.66;45.22;99130.24;108128;1251;76123;-69
2024/01/19 10:55:27;;;;;;;28.30;11.80;;;;;;;10.62;44.88;99135.39;108255;1251;71641;-69
2024/01/19 10:58:05;;;;;;;23.30;11.40;;;;;;;10.66;44.72;99143.62;108217;1253;74869;-70
2024/01/19 11:00:36;;;;;;;17.60;10.00;;;;;;;10.83;44.70;99150.45;108260;1252;61442;-69
2024/01/19 11:03:04;;;;;;;18.70;10.40;;;;;;;11.06;44.08;99150.06;108160;1251;60495;-70
2024/01/19 11:05:32;;;;;;;20.40;9.70;;;;;;;11.18;43.88;99156.49;108241;1251;74203;-70
2024/01/19 11:08:01;;;;;;;18.90;9.20;;;;;;;11.16;43.28;99156.93;108223;1256;70716;-70
2024/01/19 11:10:30;;;;;;;18.50;9.30;;;;;;;10.95;43.26;99167.70;108221;1251;73475;-69
2024/01/19 11:13:03;;;;;;;19.20;9.90;;;;;;;10.97;42.88;99169.16;108146;1253;61356;-70
2024/01/19 11:15:48;;;;;;;20.00;8.20;;;;;;;10.88;42.89;99159.11;108136;1251;60445;-69
2024/01/19 11:18:15;;;;;;;19.30;8.40;;;;;;;10.74;42.23;99163.04;108156;1256;73911;-70
2024/01/19 11:20:43;;;;;;;17.60;8.20;;;;;;;10.81;42.74;99168.14;108194;1254;69371;-69
2024/01/19 11:23:11;;;;;;;16.30;7.60;;;;;;;10.98;43.14;99174.36;108226;1253;72453;-69
2024/01/19 11:26:10;;;;;;;13.50;7.60;;;;;;;11.01;41.88;99174.55;108160;1253;60368;-69